Time;durP1;ratioP1;P1;durP2;ratioP2;P2;SDS_P1;SDS_P2;PMS_P1;PMS_P2;Temp;Humidity;BMP_temperature;BMP_pressure;BME280_temperature;BME280_humidity;BME280_pressure;Samples;Min_cycle;Max_cycle;Signal;HPM_P1;HPM_P2
2021/03/10 00:00:17;;;;;;;10.77;9.18;;;;;;;;;;5034853;28;20182;-76
2021/03/10 00:02:43;;;;;;;11.95;8.90;;;;;;;;;;5036041;28;20198;-76
2021/03/10 00:05:10;;;;;;;9.07;7.30;;;;;;;;;;5035649;28;20217;-76
2021/03/10 00:07:36;;;;;;;13.25;7.68;;;;;;;;;;5035826;28;20178;-76
2021/03/10 00:10:07;;;;;;;9.50;8.48;;;;;;;;;;5036050;28;20519;-77
2021/03/10 00:12:33;;;;;;;9.57;8.07;;;;;;;;;;5035948;28;20177;-77
2021/03/10 00:14:59;;;;;;;8.40;7.50;;;;;;;;;;5035299;28;20267;-77
2021/03/10 00:17:25;;;;;;;10.15;7.40;;;4.20;99.90;;;;;;5035752;28;20180;-76
2021/03/10 00:19:50;;;;;;;8.35;7.55;;;4.50;99.90;;;;;;5035680;28;20191;-76
2021/03/10 00:22:16;;;;;;;8.93;7.63;;;4.50;99.90;;;;;;5035713;28;20214;-77
2021/03/10 00:24:42;;;;;;;10.57;8.10;;;4.40;99.90;;;;;;5035236;28;20750;-77
2021/03/10 00:27:08;;;;;;;9.10;7.40;;;4.40;99.90;;;;;;5034503;28;20476;-77
2021/03/10 00:29:34;;;;;;;9.68;8.48;;;4.30;99.90;;;;;;5035711;28;20184;-76
2021/03/10 00:31:59;;;;;;;8.33;7.50;;;4.20;99.90;;;;;;5034400;28;20174;-76
2021/03/10 00:34:25;;;;;;;10.33;8.27;;;4.00;99.90;;;;;;5033840;28;20224;-75
2021/03/10 00:36:51;;;;;;;10.27;7.80;;;;;;;;;;5035497;28;20178;-76
2021/03/10 00:39:17;;;;;;;10.80;8.73;;;;;;;;;;5035372;28;20622;-75
2021/03/10 00:41:42;;;;;;;9.40;8.13;;;4.10;99.90;;;;;;5035250;28;20523;-76
2021/03/10 00:44:08;;;;;;;8.67;7.47;;;4.20;99.90;;;;;;5034800;28;20436;-76
2021/03/10 00:46:33;;;;;;;9.27;8.00;;;3.90;99.90;;;;;;5035603;28;20256;-76
2021/03/10 00:48:59;;;;;;;9.83;7.73;;;;;;;;;;5035457;28;20219;-75
2021/03/10 00:51:25;;;;;;;10.80;7.50;;;;;;;;;;5035182;28;20327;-75
2021/03/10 00:53:51;;;;;;;10.30;9.20;;;;;;;;;;5034683;28;20442;-76
2021/03/10 00:56:17;;;;;;;8.88;7.60;;;;;;;;;;5035148;28;20436;-75
2021/03/10 00:58:43;;;;;;;12.90;8.30;;;;;;;;;;5035077;28;20245;-76
2021/03/10 01:01:10;;;;;;;12.03;8.23;;;;;;;;;;5035042;28;20445;-79
2021/03/10 01:03:36;;;;;;;11.65;7.93;;;;;;;;;;5034422;28;20487;-75
2021/03/10 01:06:02;;;;;;;10.80;9.02;;;;;;;;;;5033920;28;20174;-78
2021/03/10 01:08:28;;;;;;;11.82;8.73;;;;;;;;;;5034799;28;20529;-78
2021/03/10 01:10:54;;;;;;;13.87;8.80;;;;;;;;;;5034767;28;20184;-75
2021/03/10 01:13:20;;;;;;;12.27;9.50;;;;;;;;;;5034518;28;20947;-77
2021/03/10 01:15:46;;;;;;;15.03;9.80;;;;;;;;;;5034671;28;20205;-77
2021/03/10 01:18:12;;;;;;;15.85;11.65;;;3.00;99.90;;;;;;5034413;28;20467;-77
2021/03/10 01:20:38;;;;;;;11.83;9.27;;;;;;;;;;5034625;28;20229;-77
2021/03/10 01:23:04;;;;;;;10.20;8.80;;;;;;;;;;5034174;28;20205;-77
2021/03/10 01:25:30;;;;;;;10.17;8.70;;;;;;;;;;5034398;28;20466;-78
2021/03/10 01:27:57;;;;;;;13.55;9.80;;;;;;;;;;5034505;28;20760;-76
2021/03/10 01:30:23;;;;;;;11.40;8.82;;;;;;;;;;5034267;28;20216;-76
2021/03/10 01:32:49;;;;;;;10.82;8.60;;;;;;;;;;5034381;28;20178;-76
2021/03/10 01:35:15;;;;;;;11.10;9.63;;;;;;;;;;5033970;28;20263;-78
2021/03/10 01:37:41;;;;;;;14.40;9.45;;;;;;;;;;5034299;28;20764;-78
2021/03/10 01:40:09;;;;;;;10.10;8.90;;;;;;;;;;5034474;28;20260;-77
2021/03/10 01:42:35;;;;;;;12.90;8.82;;;;;;;;;;5034155;28;20943;-77
2021/03/10 01:45:02;;;;;;;11.80;9.00;;;;;;;;;;5033756;28;20222;-76
2021/03/10 01:47:28;;;;;;;11.20;9.35;;;;;;;;;;5034176;28;20813;-77
2021/03/10 01:49:54;;;;;;;10.93;9.48;;;;;;;;;;5034152;28;20261;-77
2021/03/10 01:52:20;;;;;;;12.47;9.10;;;;;;;;;;5033972;28;20247;-78
2021/03/10 01:54:46;;;;;;;11.23;9.30;;;;;;;;;;5033512;28;20437;-77
2021/03/10 01:57:12;;;;;;;9.48;8.18;;;;;;;;;;5034190;28;20825;-77
2021/03/10 01:59:38;;;;;;;10.63;8.60;;;;;;;;;;5034059;28;20174;-78
2021/03/10 02:02:03;;;;;;;10.68;8.32;;;3.80;99.90;;;;;;5033852;28;20452;-78
2021/03/10 02:04:29;;;;;;;10.67;9.23;;;;;;;;;;5033387;28;20565;-75
2021/03/10 02:07:14;;;;;;;10.40;8.30;;;;;;;;;;5033604;28;20179;-75
2021/03/10 02:09:43;;;;;;;10.38;8.75;;;;;;;;;;5033649;28;20419;-76
2021/03/10 02:12:22;;;;;;;11.52;8.73;;;;;;;;;;5033621;28;20244;-75
2021/03/10 02:14:52;;;;;;;13.13;8.35;;;;;;;;;;5033199;28;20609;-75
2021/03/10 02:17:20;;;;;;;13.05;9.25;;;;;;;;;;5033647;28;20241;-76
2021/03/10 02:20:00;;;;;;;11.57;9.43;;;;;;;;;;5033595;28;20205;-77
2021/03/10 02:22:41;;;;;;;13.63;9.60;;;;;;;;;;5033386;28;20276;-76
2021/03/10 02:25:17;;;;;;;11.43;8.95;;;;;;;;;;5033039;28;20189;-75
2021/03/10 02:27:46;;;;;;;12.25;8.88;;;;;;;;;;5033730;28;20194;-76
2021/03/10 02:30:14;;;;;;;11.20;8.32;;;;;;;;;;5033449;28;20174;-75
2021/03/10 02:32:41;;;;;;;15.25;9.10;;;;;;;;;;5033486;28;20257;-75
2021/03/10 02:35:09;;;;;;;10.70;9.25;;;;;;;;;;5032862;28;20222;-77
2021/03/10 02:37:36;;;;;;;12.48;8.15;;;;;;;;;;5033503;28;20186;-77
2021/03/10 02:40:03;;;;;;;15.02;8.57;;;;;;;;;;5033258;28;20167;-76
2021/03/10 02:42:30;;;;;;;13.10;9.60;;;;;;;;;;5033206;28;20229;-75
2021/03/10 02:44:56;;;;;;;10.18;8.30;;;;;;;;;;5032651;28;20204;-76
2021/03/10 02:47:24;;;;;;;9.95;8.85;;;;;;;;;;5033159;28;20227;-75
2021/03/10 02:49:52;;;;;;;10.15;8.98;;;;;;;;;;5033074;28;20568;-77
2021/03/10 02:52:18;;;;;;;10.88;9.82;;;;;;;;;;5033254;28;20209;-76
2021/03/10 02:54:44;;;;;;;12.15;7.43;;;;;;;;;;5032735;28;20273;-76
2021/03/10 02:57:10;;;;;;;17.63;9.30;;;;;;;;;;5033115;28;20262;-77
2021/03/10 02:59:36;;;;;;;16.17;10.15;;;;;;;;;;5033061;28;20413;-75
2021/03/10 03:02:02;;;;;;;14.18;9.60;;;;;;;;;;5032934;28;20201;-75
2021/03/10 03:04:28;;;;;;;13.00;9.27;;;;;;;;;;5032661;28;20777;-74
2021/03/10 03:06:54;;;;;;;10.67;9.53;;;;;;;;;;5032903;28;20181;-74
2021/03/10 03:09:20;;;;;;;15.57;10.60;;;;;;;;;;5032830;28;20405;-76
2021/03/10 03:11:46;;;;;;;12.15;9.88;;;;;;;;;;5032965;28;20901;-76
2021/03/10 03:14:12;;;;;;;11.48;9.40;;;;;;;;;;5032486;28;20190;-75
2021/03/10 03:16:39;;;;;;;19.02;10.45;;;3.50;99.90;;;;;;5032810;28;20257;-75
2021/03/10 03:19:05;;;;;;;13.95;11.15;;;;;;;;;;5032634;28;20266;-75
2021/03/10 03:21:31;;;;;;;12.35;10.43;;;;;;;;;;5032879;28;20170;-74
2021/03/10 03:23:58;;;;;;;11.77;10.27;;;;;;;;;;5032350;28;20296;-75
2021/03/10 03:26:24;;;;;;;18.42;10.23;;;;;;;;;;5032796;28;20175;-76
2021/03/10 03:28:51;;;;;;;19.67;11.63;;;;;;;;;;5033252;28;20547;-77
2021/03/10 03:31:17;;;;;;;14.07;11.10;;;;;;;;;;5036436;28;20184;-75
2021/03/10 03:33:44;;;;;;;15.02;10.23;;;;;;;;;;5036031;28;20253;-75
2021/03/10 03:36:10;;;;;;;13.13;10.38;;;;;;;;;;5036733;28;20182;-77
2021/03/10 03:38:38;;;;;;;13.70;10.43;;;;;;;;;;5036641;28;20221;-74
2021/03/10 03:41:04;;;;;;;12.02;9.90;;;;;;;;;;5036384;28;20178;-75
2021/03/10 03:43:30;;;;;;;14.10;10.43;;;;;;;;;;5035853;28;20711;-75
2021/03/10 03:45:56;;;;;;;16.40;11.05;;;;;;;;;;5036650;28;20174;-76
2021/03/10 03:48:23;;;;;;;15.25;11.60;;;;;;;;;;5036505;28;20178;-75
2021/03/10 03:50:49;;;;;;;20.02;12.95;;;;;;;;;;5035147;28;20181;-75
2021/03/10 03:53:15;;;;;;;18.70;13.57;;;;;;;;;;5035995;28;20178;-74
2021/03/10 03:55:41;;;;;;;18.63;12.90;;;;;;;;;;5036187;28;20174;-75
2021/03/10 03:58:07;;;;;;;17.98;12.95;;;;;;;;;;5036180;28;20190;-74
2021/03/10 04:00:34;;;;;;;18.35;12.57;;;;;;;;;;5036164;28;20211;-76
2021/03/10 04:03:00;;;;;;;17.65;13.15;;;;;;;;;;5035804;28;20207;-77
2021/03/10 04:05:26;;;;;;;18.85;14.35;;;;;;;;;;5035771;28;20194;-76
2021/03/10 04:07:59;;;;;;;18.13;13.95;;;;;;;;;;5036020;28;20170;-77
2021/03/10 04:10:34;;;;;;;19.95;13.30;;;;;;;;;;5035915;28;20264;-75
2021/03/10 04:13:00;;;;;;;19.63;14.05;;;;;;;;;;5035574;28;20179;-77
2021/03/10 04:15:27;;;;;;;19.30;14.45;;;;;;;;;;5035615;28;20207;-76
2021/03/10 04:17:53;;;;;;;22.02;14.93;;;;;;;;;;5035635;28;20262;-75
2021/03/10 04:20:20;;;;;;;18.83;15.70;;;;;;;;;;5034475;28;20268;-75
2021/03/10 04:22:46;;;;;;;23.48;16.70;;;;;;;;;;5034275;28;20471;-77
2021/03/10 04:25:13;;;;;;;23.65;16.80;;;;;;;;;;5035309;28;20190;-76
2021/03/10 04:27:39;;;;;;;21.23;16.77;;;;;;;;;;5035498;28;20558;-79
2021/03/10 04:30:07;;;;;;;25.50;16.88;;;;;;;;;;5035737;28;20193;-77
2021/03/10 04:32:33;;;;;;;21.27;16.02;;;;;;;;;;5035699;28;20632;-78
2021/03/10 04:34:59;;;;;;;21.85;16.55;;;;;;;;;;5035128;28;20225;-76
2021/03/10 04:37:25;;;;;;;23.17;17.25;;;;;;;;;;5035678;28;20210;-78
2021/03/10 04:39:51;;;;;;;24.70;17.08;;;;;;;;;;5035024;28;20181;-77
2021/03/10 04:42:17;;;;;;;22.50;17.15;;;;;;;;;;5034440;28;20205;-76
2021/03/10 04:44:43;;;;;;;23.83;17.90;;;;;;;;;;5034964;28;20296;-76
2021/03/10 04:47:09;;;;;;;26.63;18.92;;;;;;;;;;5035346;28;20252;-77
2021/03/10 04:49:35;;;;;;;27.80;19.27;;;;;;;;;;5035189;28;20655;-77
2021/03/10 04:52:01;;;;;;;26.67;18.40;;;;;;;;;;5035061;28;20409;-75
2021/03/10 04:54:27;;;;;;;21.60;17.07;;;;;;;;;;5034744;28;20425;-77
2021/03/10 04:56:53;;;;;;;24.98;19.17;;;;;;;;;;5035357;28;20412;-76
2021/03/10 04:59:19;;;;;;;24.83;16.50;;;;;;;;;;5035194;28;20693;-76
2021/03/10 05:01:45;;;;;;;26.73;18.40;;;;;;;;;;5034910;28;20505;-77
2021/03/10 05:04:11;;;;;;;26.05;19.23;;;;;;;;;;5033338;28;20433;-77
2021/03/10 05:06:37;;;;;;;31.80;20.10;;;;;;;;;;5033702;28;20183;-76
2021/03/10 05:09:04;;;;;;;29.00;19.87;;;;;;;;;;5034938;28;20634;-77
2021/03/10 05:11:30;;;;;;;28.35;20.30;;;;;;;;;;5034821;28;20458;-77
2021/03/10 05:13:55;;;;;;;34.27;22.63;;;;;;;;;;5034230;28;20686;-78
2021/03/10 05:16:21;;;;;;;34.27;22.10;;;;;;;;;;5034549;28;20787;-77
2021/03/10 05:18:47;;;;;;;30.85;23.05;;;;;;;;;;5034664;28;20463;-76
2021/03/10 05:21:13;;;;;;;30.38;22.15;;;;;;;;;;5034591;28;20711;-78
2021/03/10 05:23:43;;;;;;;30.83;21.20;;;;;;;;;;5034172;28;20220;-78
2021/03/10 05:26:09;;;;;;;34.38;21.58;;;;;;;;;;5034290;28;20823;-77
2021/03/10 05:28:36;;;;;;;37.17;23.70;;;;;;;;;;5034455;28;20170;-78
2021/03/10 05:31:01;;;;;;;31.25;22.70;;;;;;;;;;5034243;28;20177;-77
2021/03/10 05:33:27;;;;;;;28.67;21.43;;;;;;;;;;5033666;28;20195;-77
2021/03/10 05:35:53;;;;;;;31.38;23.42;;;;;;;;;;5034330;28;20420;-78
2021/03/10 05:38:19;;;;;;;42.57;27.80;;;;;;;;;;5034125;28;20182;-77
2021/03/10 05:40:45;;;;;;;46.93;29.33;;;;;;;;;;5034058;28;20412;-78
2021/03/10 05:43:11;;;;;;;41.17;26.73;;;;;;;;;;5032466;28;20546;-77
2021/03/10 05:45:37;;;;;;;38.83;24.25;;;;;;;;;;5034352;28;20242;-77
2021/03/10 05:48:05;;;;;;;36.85;24.05;;;;;;;;;;5033160;28;20231;-77
2021/03/10 05:50:31;;;;;;;33.97;22.10;;;;;;;;;;5033953;28;20657;-76
2021/03/10 05:52:58;;;;;;;34.70;22.87;;;;;;;;;;5032485;28;20190;-78
2021/03/10 05:55:24;;;;;;;32.85;21.85;;;;;;;;;;5033954;28;20821;-77
2021/03/10 05:57:50;;;;;;;35.20;23.45;;;;;;;;;;5034228;28;20170;-78
2021/03/10 06:00:17;;;;;;;35.80;23.73;;;;;;;;;;5033926;28;20176;-77
2021/03/10 06:02:43;;;;;;;34.90;24.55;;;;;;;;;;5033727;28;20244;-79
2021/03/10 06:05:22;;;;;;;36.38;24.88;;;;;;;;;;5033416;28;20197;-77
2021/03/10 06:07:59;;;;;;;32.60;23.33;;;;;;;;;;5033746;28;20178;-78
2021/03/10 06:10:34;;;;;;;33.10;22.02;;;;;;;;;;5033777;28;20256;-77
2021/03/10 06:13:00;;;;;;;32.55;23.50;;;;;;;;;;5032160;28;20180;-78
2021/03/10 06:15:26;;;;;;;27.90;20.70;;;;;;;;;;5033577;28;20671;-77
2021/03/10 06:17:52;;;;;;;35.92;23.55;;;;;;;;;;5033557;28;20778;-77
2021/03/10 06:20:28;;;;;;;34.23;23.00;;;;;;;;;;5033551;28;20178;-77
2021/03/10 06:22:55;;;;;;;30.13;20.80;;;;;;;;;;5033250;28;20463;-78
2021/03/10 06:25:24;;;;;;;33.80;23.02;;;;;;;;;;5033226;28;20194;-76
2021/03/10 06:27:57;;;;;;;34.13;20.80;;;;;;;;;;5033315;28;20178;-76
2021/03/10 06:30:37;;;;;;;33.42;22.73;;;;;;;;;;5033380;28;20174;-76
2021/03/10 06:33:04;;;;;;;31.00;20.80;;;;;;;;;;5016136;28;20186;-78
2021/03/10 06:35:32;;;;;;;33.28;22.75;;;;;;;;;;5013704;28;20212;-77
2021/03/10 06:38:11;;;;;;;32.80;21.60;;;;;;;;;;5013678;28;20180;-76
2021/03/10 06:40:47;;;;;;;38.58;23.00;;;;;;;;;;5028244;28;20224;-76
2021/03/10 06:43:13;;;;;;;33.22;20.90;;;;;;;;;;5030067;28;20693;-77
2021/03/10 06:45:39;;;;;;;30.43;20.07;;;;;;;;;;5030609;28;20268;-77
2021/03/10 06:48:15;;;;;;;33.70;20.98;;;;;;;;;;5032601;28;20430;-77
2021/03/10 06:50:41;;;;;;;31.10;19.88;;;;;;;;;;5033128;28;20580;-76
2021/03/10 06:53:07;;;;;;;35.23;21.13;;;;;;;;;;5032209;28;20181;-77
2021/03/10 06:55:43;;;;;;;34.65;22.08;;;;;;;;;;5032879;28;21101;-76
2021/03/10 06:58:09;;;;;;;34.88;22.67;;;;;;;;;;5033247;28;20176;-77
2021/03/10 07:00:36;;;;;;;37.42;23.02;;;;;;;;;;5033107;28;20184;-77
2021/03/10 07:03:02;;;;;;;36.15;20.77;;;;;;;;;;5032149;28;20205;-77
2021/03/10 07:05:29;;;;;;;31.42;21.05;;;;;;;;;;5034947;28;20194;-77
2021/03/10 07:07:55;;;;;;;34.55;22.98;;;;;;;;;;5037180;28;20545;-77
2021/03/10 07:10:22;;;;;;;35.80;22.45;;;;;;;;;;5037250;28;20183;-76
2021/03/10 07:12:48;;;;;;;37.42;22.35;;;;;;;;;;5037116;28;20178;-77
2021/03/10 07:15:15;;;;;;;35.97;23.00;;;;;;;;;;5036626;28;20626;-76
2021/03/10 07:17:42;;;;;;;35.28;23.20;;;;;;;;;;5036942;28;20231;-77
2021/03/10 07:20:09;;;;;;;39.63;22.50;;;;;;;;;;5036983;28;20166;-76
2021/03/10 07:22:37;;;;;;;36.20;21.58;;;;;;;;;;5036932;28;20212;-76
2021/03/10 07:25:02;;;;;;;40.58;22.73;;;;;;;;;;5036264;28;20267;-76
2021/03/10 07:27:47;;;;;;;32.73;20.67;;;;;;;;;;5036770;28;20166;-76
2021/03/10 07:30:13;;;;;;;34.00;22.45;;;;;;;;;;5035354;28;20943;-76
2021/03/10 07:32:39;;;;;;;40.88;22.45;;;;;;;;;;5036757;28;20178;-77
2021/03/10 07:35:07;;;;;;;32.80;21.25;;;;;;;;;;5034874;28;20216;-77
2021/03/10 07:37:33;;;;;;;40.28;22.63;;;;;;;;;;5036377;28;20182;-76
2021/03/10 07:40:28;;;;;;;33.95;22.27;;;;;;;;;;5036496;28;20258;-75
2021/03/10 07:42:55;;;;;;;38.42;22.52;;;;;;;;;;5027592;28;20275;-77
2021/03/10 07:45:23;;;;;;;36.83;22.83;;;;;;;;;;5036021;28;20216;-76
2021/03/10 07:47:53;;;;;;;37.03;21.80;;;;;;;;;;5036293;28;20513;-77
2021/03/10 07:50:19;;;;;;;38.47;23.45;;;;;;;;;;5036126;28;20182;-78
2021/03/10 07:52:55;;;;;;;36.28;21.67;;;;;;;;;;5034739;28;20655;-77
2021/03/10 07:55:22;;;;;;;36.42;21.90;;;;;;;;;;5036030;28;20240;-77
2021/03/10 07:57:54;;;;;;;39.38;22.95;;;;;;;;;;5034970;28;20212;-78
2021/03/10 08:00:21;;;;;;;39.83;23.23;;;;;;;;;;5036353;28;20224;-78
2021/03/10 08:02:48;;;;;;;37.03;21.70;;;;;;;;;;5036094;28;20203;-77
2021/03/10 08:05:21;;;;;;;43.35;23.75;;;;;;;;;;5035502;28;20190;-77
2021/03/10 08:07:47;;;;;;;36.75;23.13;;;;;;;;;;5035829;28;20224;-77
2021/03/10 08:10:24;;;;;;;36.53;22.77;;;;;;;;;;5035730;28;20249;-77
2021/03/10 08:12:49;;;;;;;38.60;22.85;;;;;;;;;;5035628;28;20219;-78
2021/03/10 08:15:24;;;;;;;36.37;22.20;;;5.50;99.90;;;;;;5033724;28;20671;-77
2021/03/10 08:18:00;;;;;;;36.45;22.20;;;5.60;99.90;;;;;;5035573;28;20414;-78
2021/03/10 08:20:30;;;;;;;37.60;23.38;;;5.60;99.90;;;;;;5035920;28;20166;-77
2021/03/10 08:22:56;;;;;;;33.33;21.77;;;5.70;99.90;;;;;;5035645;28;20232;-77
2021/03/10 08:25:23;;;;;;;37.38;23.67;;;5.70;99.90;;;;;;5035273;28;20197;-77
2021/03/10 08:27:48;;;;;;;35.40;20.77;;;5.80;99.90;;;;;;5035527;28;20185;-76
2021/03/10 08:30:15;;;;;;;40.80;23.20;;;5.80;99.90;;;;;;5035718;28;20177;-77
2021/03/10 08:32:41;;;;;;;35.95;22.67;;;6.00;99.90;;;;;;5035619;28;20602;-76
2021/03/10 08:35:11;;;;;;;35.88;24.27;;;6.00;99.90;;;;;;5035029;28;20216;-76
2021/03/10 08:37:44;;;;;;;38.47;22.88;;;6.10;99.90;;;;;;5035329;28;20174;-76
2021/03/10 08:40:11;;;;;;;37.67;23.38;;;6.20;99.90;;;;;;5035728;28;20166;-77
2021/03/10 08:42:43;;;;;;;38.63;24.83;;;6.20;99.90;;;;;;5035318;28;20208;-76
2021/03/10 08:45:18;;;;;;;38.38;22.40;;;6.30;99.90;;;;;;5035095;28;20554;-77
2021/03/10 08:47:54;;;;;;;40.65;23.40;;;6.30;99.90;;;;;;5035252;28;20219;-76
2021/03/10 08:50:19;;;;;;;35.50;23.05;;;6.40;99.90;;;;;;5035536;28;20173;-77
2021/03/10 08:52:45;;;;;;;34.40;23.53;;;6.50;99.90;;;;;;5035248;28;20182;-76
2021/03/10 08:55:11;;;;;;;38.10;22.77;;;6.50;99.90;;;;;;5034898;28;20594;-77
2021/03/10 08:57:36;;;;;;;35.97;24.00;;;6.70;99.90;;;;;;5035228;28;20409;-77
2021/03/10 09:00:07;;;;;;;33.43;22.50;;;6.80;99.90;;;;;;5035134;28;20227;-76
2021/03/10 09:02:35;;;;;;;36.20;23.20;;;6.90;99.90;;;;;;5034019;28;20234;-78
2021/03/10 09:05:03;;;;;;;33.33;23.20;;;7.00;99.90;;;;;;5034642;28;20248;-77
2021/03/10 09:07:29;;;;;;;34.00;23.73;;;7.10;99.90;;;;;;5033810;28;20181;-78
2021/03/10 09:09:58;;;;;;;39.45;24.05;;;7.30;99.90;;;;;;5034789;28;20243;-77
2021/03/10 09:12:29;;;;;;;38.90;24.80;;;7.30;99.90;;;;;;5033778;28;20317;-79
2021/03/10 09:14:55;;;;;;;31.73;22.10;;;7.50;99.90;;;;;;5034590;28;20202;-77
2021/03/10 09:17:31;;;;;;;35.15;24.27;;;7.40;99.90;;;;;;5034887;28;20231;-78
2021/03/10 09:19:59;;;;;;;30.85;21.80;;;7.40;99.90;;;;;;5034576;28;20170;-77
2021/03/10 09:22:25;;;;;;;34.53;23.00;;;7.50;99.90;;;;;;5034770;28;20194;-77
2021/03/10 09:24:56;;;;;;;32.45;22.23;;;7.60;99.90;;;;;;5034257;28;20198;-78
2021/03/10 09:27:28;;;;;;;32.15;22.60;;;7.70;99.90;;;;;;5033929;28;20178;-78
2021/03/10 09:29:58;;;;;;;35.80;24.30;;;7.90;99.90;;;;;;5034489;28;20524;-77
2021/03/10 09:32:24;;;;;;;40.80;25.40;;;7.90;99.90;;;;;;5033275;28;20187;-75
2021/03/10 09:34:52;;;;;;;33.90;24.15;;;8.00;99.90;;;;;;5034007;28;20217;-77
2021/03/10 09:37:29;;;;;;;36.65;24.85;;;8.10;99.90;;;;;;5034470;28;20182;-78
2021/03/10 09:39:55;;;;;;;34.78;24.42;;;8.40;99.90;;;;;;5034614;28;20192;-76
2021/03/10 09:42:27;;;;;;;30.10;21.87;;;8.50;99.90;;;;;;5032662;28;20317;-76
2021/03/10 09:44:55;;;;;;;34.15;24.90;;;8.70;99.90;;;;;;5033911;28;20261;-77
2021/03/10 09:47:23;;;;;;;37.10;24.52;;;8.80;99.90;;;;;;5034366;28;20170;-77
2021/03/10 09:49:57;;;;;;;32.10;22.10;;;8.80;99.90;;;;;;5032950;28;20205;-77
2021/03/10 09:52:33;;;;;;;31.10;21.90;;;9.00;99.90;;;;;;5034041;28;20182;-78
2021/03/10 09:54:59;;;;;;;31.45;23.08;;;9.20;99.90;;;;;;5033529;28;20618;-78
2021/03/10 09:57:29;;;;;;;31.20;23.10;;;9.30;99.90;;;;;;5034084;28;20173;-77
2021/03/10 09:59:56;;;;;;;29.90;21.55;;;9.30;99.90;;;;;;5033949;28;20448;-77
2021/03/10 10:02:23;;;;;;;33.38;21.00;;;9.40;99.90;;;;;;5033943;28;20209;-78
2021/03/10 10:05:04;;;;;;;27.00;19.83;;;9.40;99.90;;;;;;5033673;28;20186;-77
2021/03/10 10:07:31;;;;;;;24.15;19.08;;;9.50;99.90;;;;;;5033893;28;20170;-78
2021/03/10 10:09:57;;;;;;;26.20;17.45;;;9.40;99.90;;;;;;5033943;28;20178;-77
2021/03/10 10:12:24;;;;;;;22.50;17.90;;;9.50;99.90;;;;;;5033702;28;20201;-76
2021/03/10 10:14:50;;;;;;;27.25;18.05;;;;;;;;;;5033247;28;20193;-75
2021/03/10 10:17:16;;;;;;;22.13;16.23;;;9.70;99.90;;;;;;5033726;28;20631;-76
2021/03/10 10:19:43;;;;;;;21.83;16.95;;;10.10;99.90;;;;;;5033612;28;20540;-77
2021/03/10 10:22:09;;;;;;;23.40;16.07;;;10.40;99.90;;;;;;5033561;28;20619;-79
2021/03/10 10:24:35;;;;;;;21.60;16.03;;;;;;;;;;5033054;28;20760;-79
2021/03/10 10:27:01;;;;;;;17.47;13.90;;;;;;;;;;5033503;28;20438;-77
2021/03/10 10:29:27;;;;;;;21.33;16.23;;;10.70;99.90;;;;;;5033536;28;20414;-74
2021/03/10 10:31:53;;;;;;;25.17;18.70;;;10.80;99.90;;;;;;5033434;28;20416;-78
2021/03/10 10:34:19;;;;;;;19.67;14.83;;;10.90;99.90;;;;;;5032891;28;20213;-77
2021/03/10 10:36:44;;;;;;;18.50;16.33;;;11.00;99.90;;;;;;5033277;28;20540;-76
2021/03/10 10:39:10;;;;;;;21.77;18.00;;;11.00;99.90;;;;;;5033291;28;20212;-75
2021/03/10 10:41:36;;;;;;;21.67;18.10;;;11.00;99.90;;;;;;5033454;28;20185;-74
2021/03/10 10:44:01;;;;;;;21.20;16.20;;;11.20;99.90;;;;;;5032649;28;20241;-75
2021/03/10 10:46:27;;;;;;;17.30;15.47;;;11.40;99.90;;;;;;5033487;28;20185;-75
2021/03/10 10:48:53;;;;;;;15.00;11.90;;;11.60;99.90;;;;;;5033345;28;20174;-76
2021/03/10 10:51:21;;;;;;;17.90;14.00;;;11.30;99.90;;;;;;5033351;28;20265;-75
2021/03/10 10:53:48;;;;;;;18.27;15.47;;;11.60;99.90;;;;;;5032728;28;20194;-75
2021/03/10 10:56:13;;;;;;;20.57;17.47;;;11.50;99.90;;;;;;5033302;28;20413;-75
2021/03/10 10:58:39;;;;;;;17.87;14.83;;;11.40;99.90;;;;;;5033104;28;20746;-74
2021/03/10 11:01:04;;;;;;;14.97;12.07;;;11.70;99.90;;;;;;5033109;28;20174;-75
2021/03/10 11:03:30;;;;;;;20.43;17.30;;;;;;;;;;5032719;28;20289;-74
2021/03/10 11:05:56;;;;;;;14.10;12.17;;;;;;;;;;5033132;28;20555;-75
2021/03/10 11:08:23;;;;;;;14.17;10.50;;;;;;;;;;5033259;28;20439;-75
2021/03/10 11:10:49;;;;;;;14.03;9.57;;;;;;;;;;5032760;28;20440;-74
2021/03/10 11:13:15;;;;;;;17.70;13.50;;;;;;;;;;5032628;28;20401;-74
2021/03/10 11:15:41;;;;;;;15.97;12.10;;;;;;;;;;5033232;28;20409;-74
2021/03/10 11:18:07;;;;;;;13.10;7.67;;;;;;;;;;5033054;28;20456;-74
2021/03/10 11:20:33;;;;;;;9.63;6.23;;;;;;;;;;5032986;28;20412;-74
2021/03/10 11:22:59;;;;;;;8.37;6.50;;;;;;;;;;5032660;28;20470;-76
2021/03/10 11:25:25;;;;;;;8.83;6.37;;;11.40;99.90;;;;;;5031727;28;20433;-74
2021/03/10 11:27:50;;;;;;;8.07;6.53;;;11.40;99.90;;;;;;5032919;28;20924;-75
2021/03/10 11:30:17;;;;;;;10.90;5.93;;;11.50;99.90;;;;;;5032826;28;20185;-77
2021/03/10 11:32:42;;;;;;;10.63;7.53;;;11.70;99.90;;;;;;5032816;28;20682;-77
2021/03/10 11:35:09;;;;;;;7.93;6.97;;;11.70;99.90;;;;;;5032262;28;20545;-77
2021/03/10 11:37:36;;;;;;;10.77;8.33;;;;;;;;;;5030742;28;20192;-79
2021/03/10 11:40:03;;;;;;;16.97;15.33;;;;;;;;;;5030773;28;20413;-78
2021/03/10 11:42:29;;;;;;;13.45;12.05;;;;;;;;;;5026050;28;20772;-76
2021/03/10 11:44:55;;;;;;;14.50;7.97;;;12.50;99.90;;;;;;5030466;28;20623;-76
2021/03/10 11:47:20;;;;;;;12.47;8.77;;;12.50;99.90;;;;;;5030313;28;20417;-78
2021/03/10 11:49:47;;;;;;;11.43;9.13;;;;;;;;;;5031676;28;20285;-75
2021/03/10 11:52:12;;;;;;;13.53;12.13;;;12.70;99.90;;;;;;5034666;28;20180;-76
2021/03/10 11:54:39;;;;;;;17.67;13.97;;;;;;;;;;5034122;28;20940;-79
2021/03/10 11:57:05;;;;;;;8.90;7.50;;;;;;;;;;5034566;28;20261;-74
2021/03/10 11:59:32;;;;;;;18.17;11.87;;;;;;;;;;5035010;28;20500;-77
2021/03/10 12:01:58;;;;;;;13.03;10.00;;;;;;;;;;5033753;28;20417;-78
2021/03/10 12:04:24;;;;;;;8.90;6.73;;;;;;;;;;5034494;28;20467;-77
2021/03/10 12:06:51;;;;;;;8.70;6.37;;;;;;;;;;5034498;28;20413;-77
2021/03/10 12:09:18;;;;;;;7.67;6.87;;;;;;;;;;5033995;28;20413;-77
2021/03/10 12:11:46;;;;;;;10.00;7.20;;;;;;;;;;5034191;28;20443;-76
2021/03/10 12:14:12;;;;;;;11.07;8.67;;;;;;;;;;5034423;28;20448;-77
2021/03/10 12:16:39;;;;;;;16.23;13.17;;;;;;;;;;5033466;28;20463;-77
2021/03/10 12:19:05;;;;;;;16.87;12.37;;;;;;;;;;5034374;28;20939;-77
2021/03/10 12:21:31;;;;;;;20.70;15.80;;;;;;;;;;5033889;28;20429;-76
2021/03/10 12:23:58;;;;;;;15.03;9.60;;;;;;;;;;5033281;28;20461;-73
2021/03/10 12:26:25;;;;;;;11.03;9.83;;;;;;;;;;5033866;28;20743;-75
2021/03/10 12:28:51;;;;;;;13.70;10.00;;;;;;;;;;5034383;28;20479;-75
2021/03/10 12:31:17;;;;;;;8.47;7.23;;;;;;;;;;5033196;28;20479;-77
2021/03/10 12:33:43;;;;;;;10.20;8.63;;;;;;;;;;5033617;28;20456;-75
2021/03/10 12:36:09;;;;;;;8.33;7.07;;;;;;;;;;5032541;28;20478;-75
2021/03/10 12:38:36;;;;;;;8.83;7.80;;;;;;;;;;5033921;28;20431;-77
2021/03/10 12:41:02;;;;;;;9.97;7.43;;;;;;;;;;5033278;28;20425;-77
2021/03/10 12:43:28;;;;;;;15.47;8.93;;;;;;;;;;5031988;28;20515;-75
2021/03/10 12:45:54;;;;;;;15.70;13.50;;;;;;;;;;5033199;28;20484;-75
2021/03/10 12:48:21;;;;;;;14.17;9.50;;;;;;;;;;5033492;28;20486;-75
2021/03/10 12:50:47;;;;;;;9.00;7.43;;;;;;;;;;5033571;28;20416;-77
2021/03/10 12:53:15;;;;;;;9.73;8.03;;;;;;;;;;5033175;28;20417;-76
2021/03/10 12:55:41;;;;;;;8.37;7.23;;;;;;;;;;5033005;28;20790;-76
2021/03/10 12:58:07;;;;;;;10.30;8.43;;;;;;;;;;5033716;28;20396;-76
2021/03/10 13:00:34;;;;;;;11.87;7.60;;;;;;;;;;5033113;28;20421;-77
2021/03/10 13:03:00;;;;;;;9.10;7.53;;;;;;;;;;5031282;28;20449;-75
2021/03/10 13:05:26;;;;;;;9.33;8.20;;;;;;;;;;5032889;28;20802;-77
2021/03/10 13:07:52;;;;;;;9.93;7.73;;;;;;;;;;5032276;28;20611;-75
2021/03/10 13:10:19;;;;;;;8.33;6.80;;;;;;;;;;5032283;28;20423;-76
2021/03/10 13:12:45;;;;;;;8.40;7.17;;;;;;;;;;5031831;28;20437;-75
2021/03/10 13:15:12;;;;;;;8.40;6.40;;;;;;;;;;5033120;28;20449;-74
2021/03/10 13:17:39;;;;;;;10.57;7.20;;;;;;;;;;5032624;28;20427;-75
2021/03/10 13:20:06;;;;;;;9.50;6.60;;;;;;;;;;5030256;28;20425;-74
2021/03/10 13:22:31;;;;;;;9.17;6.70;;;12.70;99.90;;;;;;5014243;28;20465;-77
2021/03/10 13:24:57;;;;;;;11.67;8.63;;;;;;;;;;5021869;28;20472;-75
2021/03/10 13:27:24;;;;;;;10.23;7.80;;;;;;;;;;5033192;28;20264;-77
2021/03/10 13:29:51;;;;;;;14.97;9.63;;;;;;;;;;5033192;28;20394;-78
2021/03/10 13:32:18;;;;;;;9.87;8.10;;;;;;;;;;5032381;28;20421;-76
2021/03/10 13:34:44;;;;;;;9.97;6.93;;;;;;;;;;5033009;28;20448;-76
2021/03/10 13:37:10;;;;;;;11.00;8.60;;;;;;;;;;5033085;28;20813;-78
2021/03/10 13:39:36;;;;;;;13.03;9.40;;;;;;;;;;5030235;28;20413;-77
2021/03/10 13:42:03;;;;;;;10.23;9.10;;;;;;;;;;5031464;28;20413;-76
2021/03/10 13:44:29;;;;;;;10.93;9.20;;;;;;;;;;5029176;28;20475;-76
2021/03/10 13:46:55;;;;;;;16.73;11.47;;;;;;;;;;5031731;28;20433;-79
2021/03/10 13:49:21;;;;;;;12.40;9.73;;;;;;;;;;5030989;28;20420;-76
2021/03/10 13:51:47;;;;;;;14.50;10.10;;;;;;;;;;5032803;28;20769;-78
2021/03/10 13:54:14;;;;;;;11.93;9.37;;;;;;;;;;5029580;28;20475;-76